Thetford Center, VT (05075)

12:55 AM EDT on August 31, 2016 (GMT -0400)
Stone House Farm | | Change Station

Elev 1230 ft 43.83 °N, 72.34 °W | Updated 4 seconds ago

Clear
Clear
59.0 °F
Feels Like 59.0 °F
N
0.0
Wind Variable Wind from SSE
Gusts 2.0 mph

Today
High -- | Low -- °F
--% Chance of Precip.
Yesterday
High -- | Low -- °F
Precip. -- in
Pressure 30.00 in
Visibility 10.0 miles
Clouds Clear
Dew Point 32 °F
Humidity 36%
Rainfall 0.00 in
Snow Depth Not available.
6:11 AM 7:25 PM
Waning Crescent, 1% visible
METAR KLEB 310453Z AUTO 00000KT 10SM CLR 16/13 A3002 RMK AO2 SLP157 T01560133 402720111
Pressure 30.00 in
Visibility 10.0 miles
Clouds Clear
Dew Point 32 °F
Humidity 36%
Rainfall 0.00 in
Snow Depth Not available.
6:11 AM 7:25 PM
Waning Crescent, 1% visible
METAR KLEB 310453Z AUTO 00000KT 10SM CLR 16/13 A3002 RMK AO2 SLP157 T01560133 402720111

10-Day Weather Forecast

Almanac

Astronomy

Aug. 31, 2016 Rise Set
Actual Time
Civil Twilight
Nautical Twilight
Astronomical Twilight
Moon
Length of Visible Light
Length of Day
Tomorrow will be .
, % of the Moon is Illuminated

Today's Extremes

State Highs State Lows

Community

WunderPhotos

Upload Photos

1,936,039 photos uploaded!

WunderBlog® & News

Nearby

Air Quality

  Air Quality AQ Index Pollutant
Not available.

Snow Depth

Station Depth Elevation

Earthquake Activity

City Distance Mag. Time & Date
Minimum magnitude displayed is 2.5.

Coastal Water Temperatures

Place Temperature

Stations

Nearby Weather Stations

Station Location Temp. Windchill Dew Point Humidity Wind Precip. Elev Updated Type
                   

Watches & Warnings

There are currently no watches in effect.